Time;durP1;ratioP1;P1;durP2;ratioP2;P2;SDS_P1;SDS_P2;PMS_P1;PMS_P2;Temp;Humidity;BMP_temperature;BMP_pressure;BME280_temperature;BME280_humidity;BME280_pressure;Samples;Min_cycle;Max_cycle;Signal;HPM_P1;HPM_P2
2022/10/02 05:00:14;;;;;;;12.00;1.80;;;9.80;99.90;;;;;;5728401;23;20130;-75
2022/10/02 05:03:11;;;;;;;9.35;1.88;;;9.80;99.90;;;;;;4934296;29;20047;-75
2022/10/02 05:05:59;;;;;;;10.23;1.40;;;9.70;99.90;;;;;;4909704;29;20572;-76
2022/10/02 05:09:00;;;;;;;7.78;1.30;;;9.70;99.90;;;;;;4936690;29;20040;-75
2022/10/02 05:11:34;;;;;;;13.93;2.20;;;9.70;99.90;;;;;;4935750;29;20036;-85
2022/10/02 05:14:21;;;;;;;18.30;2.88;;;9.90;99.90;;;;;;4945104;29;20027;-79
2022/10/02 05:17:02;;;;;;;16.10;1.75;;;9.90;99.90;;;;;;4944612;29;20127;-75
2022/10/02 05:19:35;;;;;;;14.23;1.90;;;9.70;99.90;;;;;;4922043;29;20063;-75
2022/10/02 05:22:04;;;;;;;14.30;1.75;;;9.70;99.90;;;;;;4931494;29;20031;-77
2022/10/02 05:24:48;;;;;;;19.83;2.03;;;9.70;99.90;;;;;;4919414;29;20349;-77
2022/10/02 05:27:38;;;;;;;12.57;1.67;;;9.70;99.90;;;;;;4936581;29;20043;-76
2022/10/02 05:30:09;;;;;;;12.60;1.80;;;9.70;99.90;;;;;;4902589;29;20036;-74
2022/10/02 05:33:03;;;;;;;21.27;2.17;;;9.80;99.90;;;;;;4936182;29;20042;-74
2022/10/02 05:36:11;;;;;;;20.33;1.98;;;9.60;99.90;;;;;;4935929;29;20044;-74
2022/10/02 05:39:06;;;;;;;12.18;1.50;;;9.70;99.90;;;;;;4935764;29;20038;-74
2022/10/02 05:41:55;;;;;;;7.30;1.40;;;9.60;99.90;;;;;;4935875;29;20040;-78
2022/10/02 05:44:26;;;;;;;10.57;1.90;;;9.70;99.90;;;;;;4950785;29;20036;-77
2022/10/02 05:46:56;;;;;;;;;;;9.80;99.90;;;;;;4951674;29;20036;-77
2022/10/02 05:49:28;;;;;;;17.23;2.15;;;9.80;99.90;;;;;;4948382;29;19973;-78
2022/10/02 05:52:03;;;;;;;12.20;1.55;;;9.90;99.90;;;;;;4957949;29;20039;-78
2022/10/02 05:54:55;;;;;;;14.35;2.28;;;10.00;99.90;;;;;;4935459;29;20028;-79
2022/10/02 05:57:35;;;;;;;14.85;2.53;;;10.50;99.90;;;;;;4954552;29;20019;-79
2022/10/02 06:00:19;;;;;;;19.80;2.38;;;10.80;99.90;;;;;;4947565;29;20039;-79
2022/10/02 06:03:01;;;;;;;13.48;2.30;;;11.20;99.90;;;;;;4939240;29;20063;-79
2022/10/02 06:05:39;;;;;;;14.98;2.53;;;11.40;99.90;;;;;;4941992;29;20067;-79
2022/10/02 06:08:08;;;;;;;8.63;2.05;;;11.60;99.90;;;;;;4939382;29;20024;-78
2022/10/02 06:10:45;;;;;;;23.45;2.33;;;11.60;99.90;;;;;;4934956;29;20036;-79
2022/10/02 06:13:16;;;;;;;17.83;2.65;;;11.60;99.90;;;;;;4917906;29;20040;-78
2022/10/02 06:15:49;;;;;;;17.55;2.60;;;11.60;99.90;;;;;;4917396;29;20039;-79
2022/10/02 06:18:22;;;;;;;12.30;2.15;;;11.80;99.90;;;;;;4924665;29;20092;-79
2022/10/02 06:21:06;;;;;;;13.73;2.00;;;11.60;99.90;;;;;;4922956;29;20075;-79
2022/10/02 06:23:49;;;;;;;15.30;2.33;;;11.70;99.90;;;;;;4913300;29;20566;-78
2022/10/02 06:26:44;;;;;;;14.63;2.60;;;11.60;99.90;;;;;;4927158;29;20039;-79
2022/10/02 06:29:22;;;;;;;14.43;1.85;;;11.60;99.90;;;;;;4925816;29;20031;-78
2022/10/02 06:32:36;;;;;;;10.20;1.60;;;11.60;99.90;;;;;;4923813;29;20029;-78
2022/10/02 06:35:10;;;;;;;12.63;2.30;;;11.60;99.90;;;;;;4883309;29;20047;-79
2022/10/02 06:37:55;;;;;;;12.75;1.80;;;11.70;99.90;;;;;;4924039;29;20029;-78
2022/10/02 06:40:20;;;;;;;11.98;1.80;;;11.70;99.90;;;;;;4926121;29;20052;-78
2022/10/02 06:42:55;;;;;;;8.90;1.85;;;11.80;99.90;;;;;;4928314;29;20028;-78
2022/10/02 06:45:41;;;;;;;10.30;2.25;;;12.10;99.90;;;;;;4915178;29;20447;-79
2022/10/02 06:48:16;;;;;;;18.30;2.70;;;12.30;99.90;;;;;;4927439;29;20044;-79
2022/10/02 06:51:06;;;;;;;10.77;2.75;;;12.80;99.90;;;;;;4932178;29;20060;-78
2022/10/02 06:53:47;;;;;;;16.08;3.22;;;13.30;99.90;;;;;;4922208;29;20064;-81
2022/10/02 06:56:34;;;;;;;15.75;3.38;;;13.60;99.90;;;;;;4911967;29;20035;-79
2022/10/02 06:59:16;;;;;;;11.30;3.35;;;14.70;1.00;;;;;;4921107;29;20056;-77
2022/10/02 07:01:59;;;;;;;11.57;2.63;;;18.80;99.90;;;;;;4900205;29;20420;-78
2022/10/02 07:04:41;;;;;;;11.63;2.40;;;18.80;99.90;;;;;;4900163;29;20029;-78
2022/10/02 07:07:19;;;;;;;8.75;1.98;;;19.40;99.90;;;;;;4900204;29;20024;-78
2022/10/02 07:09:55;;;;;;;12.38;2.28;;;17.10;99.90;;;;;;4912135;29;20101;-78
2022/10/02 07:12:36;;;;;;;12.45;2.53;;;15.90;99.90;;;;;;4920221;29;20130;-78
2022/10/02 07:15:19;;;;;;;11.63;2.15;;;15.20;99.90;;;;;;4923556;29;20028;-79
2022/10/02 07:18:15;;;;;;;11.13;2.03;;;15.50;99.90;;;;;;4919313;29;20414;-78
2022/10/02 07:21:13;;;;;;;12.55;2.47;;;19.40;99.90;;;;;;4919745;29;20420;-78
2022/10/02 07:24:15;;;;;;;7.55;1.50;;;23.40;99.90;;;;;;4897333;29;20076;-78
2022/10/02 07:26:46;;;;;;;8.77;1.80;;;26.40;63.70;;;;;;4919328;29;20043;-78
2022/10/02 07:29:16;;;;;;;9.38;1.55;;;28.40;33.90;;;;;;4919425;29;20032;-78
2022/10/02 07:31:59;;;;;;;11.30;1.55;;;30.20;18.80;;;;;;4919314;29;20036;-78
2022/10/02 07:34:54;;;;;;;9.13;1.70;;;30.30;3.00;;;;;;4902254;29;20087;-78
2022/10/02 07:37:48;;;;;;;7.70;1.83;;;31.40;1.00;;;;;;4919411;29;20076;-78
2022/10/02 07:40:48;;;;;;;8.90;1.35;;;31.50;1.00;;;;;;4926207;29;20585;-79
2022/10/02 07:43:31;;;;;;;11.43;1.60;;;32.20;1.00;;;;;;4937875;29;20031;-78
2022/10/02 07:46:09;;;;;;;8.65;1.73;;;33.60;1.00;;;;;;4937991;29;20063;-78
2022/10/02 07:48:53;;;;;;;12.00;1.77;;;36.40;1.00;;;;;;4928501;29;20062;-78
2022/10/02 07:51:48;;;;;;;10.15;1.63;;;35.20;1.00;;;;;;4918813;29;20106;-78
2022/10/02 07:54:20;;;;;;;8.10;1.20;;;34.90;1.00;;;;;;4918901;29;20028;-78
2022/10/02 07:56:47;;;;;;;8.43;1.55;;;35.40;1.00;;;;;;4899993;29;20036;-78
2022/10/02 07:59:16;;;;;;;11.90;1.73;;;34.40;1.00;;;;;;4899113;29;20100;-78
2022/10/02 08:01:43;;;;;;;8.07;1.80;;;35.00;1.00;;;;;;4899235;29;20045;-78
2022/10/02 08:04:17;;;;;;;8.07;1.80;;;30.60;1.00;;;;;;4916667;29;20028;-78
2022/10/02 08:06:46;;;;;;;10.38;1.75;;;32.50;1.00;;;;;;4918710;29;20747;-78
2022/10/02 08:09:20;;;;;;;7.63;1.40;;;29.90;1.00;;;;;;4901458;29;20024;-78
2022/10/02 08:11:57;;;;;;;11.80;1.90;;;25.60;1.00;;;;;;4918089;29;20032;-78
2022/10/02 08:14:41;;;;;;;11.32;1.88;;;23.80;1.00;;;;;;4919600;29;20165;-78
2022/10/02 08:17:22;;;;;;;10.38;2.10;;;27.00;1.00;;;;;;4901227;29;20033;-78
2022/10/02 08:19:50;;;;;;;11.55;1.98;;;31.00;1.00;;;;;;4917953;29;20036;-78
2022/10/02 08:22:37;;;;;;;9.00;1.80;;;33.80;1.00;;;;;;4917805;29;20531;-78
2022/10/02 08:25:15;;;;;;;9.63;1.92;;;34.00;1.00;;;;;;4917954;29;20056;-78
2022/10/02 08:27:53;;;;;;;8.70;1.88;;;33.00;1.00;;;;;;4918160;29;20024;-78
2022/10/02 08:30:19;;;;;;;5.13;1.52;;;33.80;1.00;;;;;;4917952;29;20051;-78
2022/10/02 08:32:46;;;;;;;8.50;2.28;;;34.50;1.00;;;;;;4917994;29;20427;-78
2022/10/02 08:35:17;;;;;;;11.23;1.95;;;35.80;1.00;;;;;;4918027;29;20031;-77
2022/10/02 08:38:11;;;;;;;8.15;1.67;;;35.50;1.00;;;;;;4917998;29;20464;-78
2022/10/02 08:41:03;;;;;;;8.73;1.52;;;33.70;1.00;;;;;;4918402;29;20032;-78
2022/10/02 08:43:41;;;;;;;7.30;1.50;;;36.10;1.00;;;;;;4917866;29;20057;-78
2022/10/02 08:46:44;;;;;;;8.07;1.67;;;36.80;1.00;;;;;;4917748;29;20043;-78
2022/10/02 08:49:11;;;;;;;9.80;1.92;;;35.20;1.00;;;;;;4917651;29;20123;-78
2022/10/02 08:52:08;;;;;;;8.20;1.50;;;34.70;1.00;;;;;;4917577;29;20023;-78
2022/10/02 08:55:03;;;;;;;9.05;1.70;;;34.40;1.00;;;;;;4917531;29;20020;-78
2022/10/02 08:57:49;;;;;;;7.90;1.80;;;34.00;1.00;;;;;;4917504;29;20059;-78
2022/10/02 09:00:28;;;;;;;9.05;1.75;;;34.30;1.00;;;;;;4898261;29;20032;-78
2022/10/02 09:03:13;;;;;;;7.35;1.50;;;35.10;1.00;;;;;;4902236;29;20115;-78
2022/10/02 09:06:06;;;;;;;7.68;1.77;;;36.10;1.00;;;;;;4917246;29;20029;-78
2022/10/02 09:08:54;;;;;;;7.68;1.50;;;35.00;1.00;;;;;;4917085;29;20709;-78
2022/10/02 09:11:34;;;;;;;6.68;1.60;;;34.20;1.00;;;;;;4917325;29;20062;-77
2022/10/02 09:14:19;;;;;;;;;;;34.00;1.00;;;;;;4917857;29;20094;-78
2022/10/02 09:16:47;;;;;;;9.50;1.55;;;34.20;1.00;;;;;;4917049;29;20298;-78
2022/10/02 09:19:50;;;;;;;6.53;1.20;;;34.90;1.00;;;;;;4899937;29;20027;-78
2022/10/02 09:22:54;;;;;;;8.60;1.45;;;31.60;1.00;;;;;;4899093;29;20073;-78
2022/10/02 09:25:33;;;;;;;8.57;1.77;;;32.80;1.00;;;;;;4916678;29;20032;-78
2022/10/02 09:28:22;;;;;;;5.13;1.10;;;34.60;1.00;;;;;;4909924;29;20042;-78
2022/10/02 09:31:02;;;;;;;7.30;1.53;;;35.10;1.00;;;;;;4916718;29;20036;-78
2022/10/02 09:33:27;;;;;;;;;;;35.20;1.00;;;;;;4910397;29;20270;-77
2022/10/02 09:36:33;;;;;;;6.15;1.30;;;35.80;1.00;;;;;;4916568;29;20246;-77
2022/10/02 09:39:35;;;;;;;8.45;1.35;;;34.40;1.00;;;;;;4874294;29;20048;-77
2022/10/02 09:42:22;;;;;;;7.22;1.50;;;34.80;1.00;;;;;;4916558;29;20051;-77
2022/10/02 09:45:02;;;;;;;7.00;1.55;;;35.60;1.00;;;;;;4916413;29;20036;-77
2022/10/02 09:47:34;;;;;;;5.05;1.40;;;35.20;1.00;;;;;;4897710;29;20036;-77
2022/10/02 09:50:40;;;;;;;8.57;2.05;;;34.30;1.00;;;;;;4901484;29;20083;-77
2022/10/02 09:53:43;;;;;;;10.93;1.63;;;32.50;1.00;;;;;;4916247;29;20079;-76
2022/10/02 09:56:20;;;;;;;9.02;1.77;;;33.60;1.00;;;;;;4916278;29;20027;-77
2022/10/02 09:58:55;;;;;;;8.40;1.67;;;34.60;1.00;;;;;;4899082;29;20028;-78
2022/10/02 10:02:09;;;;;;;14.57;1.83;;;34.20;1.00;;;;;;4915952;29;20052;-77
2022/10/02 10:04:45;;;;;;;9.65;1.67;;;33.70;1.00;;;;;;4916292;29;20036;-77
2022/10/02 10:07:22;;;;;;;8.20;1.67;;;32.70;1.00;;;;;;4916339;29;20028;-77
2022/10/02 10:10:02;;;;;;;6.60;1.70;;;31.60;1.00;;;;;;4915903;29;20024;-78
2022/10/02 10:12:55;;;;;;;9.07;1.67;;;30.90;1.00;;;;;;4915372;29;20083;-77
2022/10/02 10:16:00;;;;;;;10.80;1.58;;;29.40;1.00;;;;;;4915615;29;20107;-78
2022/10/02 10:19:01;;;;;;;8.55;1.88;;;26.90;1.00;;;;;;4916152;29;20345;-78
2022/10/02 10:21:26;;;;;;;14.00;1.83;;;24.90;1.00;;;;;;4916092;29;20028;-77
2022/10/02 10:25:02;;;;;;;9.75;1.60;;;23.90;1.00;;;;;;4915908;29;20032;-77
2022/10/02 10:27:46;;;;;;;8.82;1.65;;;23.60;1.00;;;;;;4820181;29;20182;-78
2022/10/02 10:30:23;;;;;;;6.65;1.58;;;22.90;1.00;;;;;;4908654;29;20067;-78
2022/10/02 10:33:00;;;;;;;12.13;1.98;;;22.80;1.00;;;;;;4915491;29;20036;-80
2022/10/02 10:35:44;;;;;;;10.25;1.25;;;22.30;1.00;;;;;;4915531;29;20419;-77
2022/10/02 10:38:34;;;;;;;10.00;1.60;;;21.70;1.00;;;;;;4915555;29;20040;-77
2022/10/02 10:41:23;;;;;;;11.32;1.65;;;21.50;1.00;;;;;;4896680;29;20025;-77
2022/10/02 10:44:30;;;;;;;8.48;1.50;;;21.70;1.00;;;;;;4896798;29;20035;-77
2022/10/02 10:46:58;;;;;;;13.18;1.60;;;21.50;1.00;;;;;;4896772;29;20045;-77
2022/10/02 10:49:38;;;;;;;8.98;1.48;;;21.40;1.00;;;;;;4914911;29;20028;-77
2022/10/02 10:52:48;;;;;;;8.55;1.98;;;21.40;1.00;;;;;;4915579;29;20024;-77
2022/10/02 10:55:31;;;;;;;8.68;1.60;;;21.20;1.00;;;;;;4915583;29;20531;-77
2022/10/02 10:58:03;;;;;;;7.75;1.27;;;21.00;1.00;;;;;;4896666;29;20060;-77
2022/10/02 11:00:43;;;;;;;9.80;1.13;;;20.70;1.00;;;;;;4897560;29;20488;-77
2022/10/02 11:03:15;;;;;;;9.35;1.75;;;20.40;1.00;;;;;;4915765;29;20048;-77
2022/10/02 11:06:18;;;;;;;9.82;1.80;;;20.40;1.00;;;;;;4915879;29;20028;-77
2022/10/02 11:09:03;;;;;;;11.05;1.45;;;20.20;1.00;;;;;;4898428;29;20104;-77
2022/10/02 11:11:35;;;;;;;8.75;1.40;;;20.20;1.00;;;;;;4897186;29;20059;-77
2022/10/02 11:14:04;;;;;;;8.35;1.40;;;20.20;1.00;;;;;;4909091;29;20035;-77
2022/10/02 11:16:39;;;;;;;7.82;1.17;;;20.50;1.00;;;;;;4915885;29;20039;-77
2022/10/02 11:19:32;;;;;;;9.13;1.33;;;20.60;1.00;;;;;;4915565;29;20056;-77
2022/10/02 11:22:16;;;;;;;7.53;1.40;;;20.50;1.00;;;;;;4915391;29;20083;-77
2022/10/02 11:25:12;;;;;;;10.77;1.45;;;20.70;1.00;;;;;;4915346;29;20032;-77
2022/10/02 11:27:44;;;;;;;8.75;1.50;;;20.50;1.00;;;;;;4915250;29;20047;-77
2022/10/02 11:30:28;;;;;;;8.48;1.20;;;20.30;1.00;;;;;;4915326;29;20028;-74
2022/10/02 11:33:37;;;;;;;6.28;1.55;;;20.20;1.00;;;;;;4915318;29;20677;-78
2022/10/02 11:36:45;;;;;;;9.52;1.30;;;20.40;1.00;;;;;;4915628;29;20357;-78
2022/10/02 11:39:26;;;;;;;5.78;1.35;;;20.80;1.00;;;;;;4909544;29;20729;-77
2022/10/02 11:42:22;;;;;;;7.38;0.90;;;20.50;1.00;;;;;;4922294;29;20040;-77
2022/10/02 11:45:18;;;;;;;7.13;1.42;;;19.60;1.00;;;;;;4898334;29;20029;-76
2022/10/02 11:48:33;;;;;;;9.68;1.52;;;19.90;1.00;;;;;;4911330;29;20040;-76
2022/10/02 11:51:35;;;;;;;9.27;1.45;;;20.10;1.00;;;;;;4909426;29;20130;-77
2022/10/02 11:54:15;;;;;;;7.25;1.10;;;19.70;1.00;;;;;;4912430;29;20036;-76
2022/10/02 11:57:02;;;;;;;12.85;1.05;;;19.80;1.00;;;;;;4900264;29;20043;-77
2022/10/02 12:00:03;;;;;;;10.55;1.88;;;20.20;1.00;;;;;;4917886;29;20032;-76
2022/10/02 12:02:54;;;;;;;8.45;1.42;;;20.00;1.00;;;;;;4918884;29;20150;-77
2022/10/02 12:05:25;;;;;;;7.65;1.10;;;19.90;1.00;;;;;;4906211;29;20092;-76
2022/10/02 12:08:33;;;;;;;8.20;1.13;;;19.50;1.00;;;;;;4918237;29;20491;-76
2022/10/02 12:11:05;;;;;;;8.55;1.40;;;19.20;1.00;;;;;;4891127;29;20471;-76
2022/10/02 12:13:48;;;;;;;8.13;1.55;;;19.20;1.00;;;;;;4930722;29;20031;-76
2022/10/02 12:16:35;;;;;;;8.40;1.30;;;19.20;1.00;;;;;;4937185;29;20115;-76
2022/10/02 12:19:17;;;;;;;9.13;1.77;;;19.40;1.00;;;;;;4917501;29;20028;-76
2022/10/02 12:28:20;;;;;;;5.45;0.93;;;19.20;1.00;;;;;;4913930;29;20076;-76
2022/10/02 12:31:00;;;;;;;7.15;1.20;;;19.10;1.00;;;;;;4916795;29;20028;-76
2022/10/02 12:33:32;;;;;;;9.80;1.13;;;19.00;1.00;;;;;;4916934;29;20048;-76
2022/10/02 12:36:07;;;;;;;9.00;1.27;;;19.30;1.00;;;;;;4916771;29;20262;-76
2022/10/02 12:38:55;;;;;;;6.28;1.15;;;19.50;1.00;;;;;;4917155;29;20063;-76
2022/10/02 12:41:36;;;;;;;10.98;1.48;;;19.40;1.00;;;;;;4917184;29;20665;-77
2022/10/02 12:44:16;;;;;;;7.63;1.42;;;19.40;1.00;;;;;;4898377;29;20036;-77
2022/10/02 12:47:03;;;;;;;6.97;1.42;;;19.10;1.00;;;;;;4898497;29;20037;-76
2022/10/02 12:49:29;;;;;;;6.40;1.00;;;19.00;1.00;;;;;;4898468;29;20029;-77
2022/10/02 12:52:00;;;;;;;6.47;0.85;;;19.00;1.00;;;;;;4898590;29;20021;-76
2022/10/02 12:54:34;;;;;;;5.85;0.90;;;18.80;1.00;;;;;;4881868;29;20033;-76
2022/10/02 12:57:09;;;;;;;11.15;1.42;;;18.90;1.00;;;;;;4897522;29;20032;-76
2022/10/02 13:00:00;;;;;;;9.10;1.33;;;18.90;1.00;;;;;;4898139;29;20025;-77
2022/10/02 13:02:49;;;;;;;10.32;1.20;;;19.00;1.00;;;;;;4897974;29;20064;-77
2022/10/02 13:05:24;;;;;;;12.77;1.30;;;18.80;1.00;;;;;;4898709;29;20032;-76
2022/10/02 13:08:27;;;;;;;9.07;1.38;;;18.80;1.00;;;;;;4898316;29;20037;-76
2022/10/02 13:11:17;;;;;;;7.60;1.00;;;18.70;1.00;;;;;;4886199;29;20044;-76
2022/10/02 13:14:12;;;;;;;9.02;1.40;;;18.80;1.00;;;;;;4912628;29;20032;-77
2022/10/02 13:17:13;;;;;;;8.27;1.02;;;19.00;1.00;;;;;;4906348;29;20357;-77
2022/10/02 13:20:03;;;;;;;7.30;0.90;;;19.00;1.00;;;;;;4914937;29;20028;-76
2022/10/02 13:22:32;;;;;;;9.55;1.25;;;19.10;1.00;;;;;;4916923;29;20413;-76
2022/10/02 13:25:01;;;;;;;10.97;1.30;;;19.00;1.00;;;;;;4916838;29;20064;-77
2022/10/02 13:27:29;;;;;;;6.43;1.13;;;19.20;1.00;;;;;;4916740;29;20041;-76
2022/10/02 13:30:12;;;;;;;11.73;1.70;;;19.00;1.00;;;;;;4916612;29;20095;-77
2022/10/02 13:33:10;;;;;;;9.93;1.00;;;19.00;1.00;;;;;;4880974;29;20032;-76
2022/10/02 13:35:53;;;;;;;5.70;1.00;;;19.00;1.00;;;;;;4897795;29;20407;-76
2022/10/02 13:38:44;;;;;;;9.27;1.42;;;19.00;1.00;;;;;;4898034;29;20052;-76
2022/10/02 13:41:21;;;;;;;6.72;1.48;;;19.40;1.00;;;;;;4916706;29;20020;-76
2022/10/02 13:43:59;;;;;;;8.10;0.98;;;19.30;1.00;;;;;;4916497;29;20028;-76
2022/10/02 13:46:30;;;;;;;6.63;1.20;;;19.40;1.00;;;;;;4916140;29;20067;-76
2022/10/02 13:49:12;;;;;;;9.57;1.40;;;19.20;1.00;;;;;;4916425;29;20020;-77
2022/10/02 13:51:56;;;;;;;5.80;0.85;;;19.00;1.00;;;;;;4915861;29;20036;-76
2022/10/02 13:54:48;;;;;;;7.43;1.15;;;18.40;1.00;;;;;;4930642;29;20035;-77
2022/10/02 13:57:40;;;;;;;7.60;1.33;;;18.80;1.00;;;;;;4897677;29;20108;-76
2022/10/02 14:00:13;;;;;;;9.40;1.63;;;19.20;1.00;;;;;;4897295;29;20064;-76
2022/10/02 14:02:38;;;;;;;10.27;1.58;;;19.20;1.00;;;;;;4896976;29;20543;-76
2022/10/02 14:05:09;;;;;;;8.63;1.60;;;19.20;1.00;;;;;;4908674;29;20055;-77
2022/10/02 14:07:58;;;;;;;8.30;1.05;;;19.50;1.00;;;;;;4919562;29;20099;-77
2022/10/02 14:10:39;;;;;;;11.98;1.33;;;19.50;1.00;;;;;;4908939;29;20047;-76
2022/10/02 14:13:33;;;;;;;5.97;1.42;;;19.10;1.00;;;;;;4909325;29;20056;-77
2022/10/02 14:16:11;;;;;;;7.90;1.27;;;18.80;1.00;;;;;;4898035;29;20111;-76
2022/10/02 14:18:59;;;;;;;6.55;1.42;;;18.60;1.00;;;;;;4914557;29;20028;-76
2022/10/02 14:21:44;;;;;;;13.02;1.67;;;18.50;1.00;;;;;;4916939;29;20040;-76
2022/10/02 14:28:01;;;;;;;8.63;1.30;;;18.40;1.00;;;;;;4903777;29;20095;-76
2022/10/02 14:30:48;;;;;;;6.47;1.15;;;18.30;1.00;;;;;;4902191;29;20040;-76
2022/10/02 14:33:38;;;;;;;7.07;1.50;;;18.00;1.00;;;;;;4916784;29;20459;-77
2022/10/02 14:36:28;;;;;;;11.55;1.17;;;17.90;1.00;;;;;;4916732;29;20024;-76
2022/10/02 14:39:06;;;;;;;10.27;1.60;;;17.80;1.00;;;;;;4916572;29;20032;-76
2022/10/02 14:42:09;;;;;;;5.82;1.05;;;17.60;1.00;;;;;;4905786;29;20040;-76
2022/10/02 14:45:18;;;;;;;6.18;0.80;;;17.30;1.00;;;;;;4916347;29;20070;-76
2022/10/02 14:48:19;;;;;;;8.15;0.82;;;17.20;1.00;;;;;;4916678;29;20046;-76
2022/10/02 14:51:22;;;;;;;12.70;1.50;;;17.00;1.00;;;;;;4844372;29;20049;-76
2022/10/02 14:54:02;;;;;;;8.85;1.20;;;16.90;1.00;;;;;;4913155;29;20035;-76
2022/10/02 14:57:04;;;;;;;7.47;1.15;;;16.80;1.00;;;;;;4916447;29;20112;-76
2022/10/02 14:59:53;;;;;;;10.00;1.65;;;16.80;1.00;;;;;;4885808;29;20045;-76
2022/10/02 15:02:33;;;;;;;9.63;1.25;;;16.60;1.00;;;;;;4915733;29;20049;-76
2022/10/02 15:05:30;;;;;;;8.13;1.02;;;16.40;1.00;;;;;;4898397;29;20508;-76
2022/10/02 15:07:57;;;;;;;10.38;1.52;;;16.20;1.00;;;;;;4896327;29;20040;-76
2022/10/02 15:10:33;;;;;;;11.95;1.50;;;16.20;1.00;;;;;;4907633;29;20028;-76
2022/10/02 15:13:25;;;;;;;6.10;1.00;;;16.10;1.00;;;;;;4915408;29;20416;-76
2022/10/02 15:19:17;;;;;;;8.63;1.45;;;16.10;1.00;;;;;;4915225;29;20071;-76
2022/10/02 15:21:58;;;;;;;9.30;1.80;;;16.10;1.00;;;;;;4901584;29;20036;-76
2022/10/02 15:24:32;;;;;;;9.63;1.65;;;15.90;1.00;;;;;;4918631;29;20432;-76
2022/10/02 15:27:19;;;;;;;11.85;2.05;;;15.90;1.00;;;;;;4913025;29;20032;-76
2022/10/02 15:30:16;;;;;;;12.45;2.00;;;15.80;1.00;;;;;;4918980;29;20036;-76
2022/10/02 15:32:59;;;;;;;9.25;1.50;;;15.60;1.00;;;;;;4918172;29;20040;-76
2022/10/02 15:35:56;;;;;;;12.77;1.80;;;15.50;1.00;;;;;;4899857;29;20037;-76
2022/10/02 15:38:48;;;;;;;9.02;2.00;;;15.40;1.00;;;;;;4899686;29;20029;-76
2022/10/02 15:41:39;;;;;;;10.48;1.35;;;15.40;1.00;;;;;;4899692;29;20037;-76
2022/10/02 15:44:09;;;;;;;9.35;1.38;;;15.30;1.00;;;;;;4918375;29;20087;-76
2022/10/02 15:47:11;;;;;;;9.40;1.60;;;15.20;1.00;;;;;;4918465;29;20029;-76
2022/10/02 15:50:02;;;;;;;11.43;1.92;;;15.20;1.00;;;;;;4918260;29;20043;-76
2022/10/02 15:52:56;;;;;;;14.60;2.00;;;15.20;1.00;;;;;;4918435;29;20028;-76
2022/10/02 15:55:40;;;;;;;10.43;1.85;;;15.10;1.00;;;;;;4916100;29;20578;-76
2022/10/02 15:58:25;;;;;;;9.10;1.98;;;15.00;1.00;;;;;;4916133;29;20028;-76
2022/10/02 16:00:59;;;;;;;8.07;1.40;;;15.00;1.00;;;;;;4911979;29;20044;-76
2022/10/02 16:03:56;;;;;;;6.80;1.10;;;14.90;1.80;;;;;;4913619;29;20032;-76
2022/10/02 16:06:52;;;;;;;15.00;1.73;;;14.80;4.80;;;;;;4917674;29;20079;-76
2022/10/02 16:09:32;;;;;;;6.43;1.60;;;14.90;3.10;;;;;;4917621;29;20178;-76
2022/10/02 16:12:28;;;;;;;9.10;1.13;;;14.80;3.90;;;;;;4917724;29;20063;-76
2022/10/02 16:15:23;;;;;;;8.13;1.45;;;14.80;5.40;;;;;;4897783;29;20036;-76
2022/10/02 16:18:07;;;;;;;9.23;1.60;;;14.70;6.20;;;;;;4891092;29;20028;-77
2022/10/02 16:21:00;;;;;;;10.18;1.40;;;14.60;8.50;;;;;;4917833;29;20107;-76
2022/10/02 16:23:44;;;;;;;9.98;1.42;;;14.50;10.10;;;;;;4899223;29;20425;-76
2022/10/02 16:27:01;;;;;;;13.43;1.55;;;14.30;15.70;;;;;;4914521;29;20064;-76
2022/10/02 16:30:09;;;;;;;9.40;1.40;;;14.20;22.30;;;;;;4877074;29;20052;-77
2022/10/02 16:32:46;;;;;;;6.68;1.25;;;14.00;29.90;;;;;;4917620;29;20036;-77
2022/10/02 16:35:50;;;;;;;13.80;2.05;;;13.90;38.60;;;;;;4916140;29;20674;-76
2022/10/02 16:38:45;;;;;;;10.60;1.45;;;13.80;43.70;;;;;;4917660;29;20072;-76
2022/10/02 16:41:37;;;;;;;10.73;2.15;;;13.90;51.40;;;;;;4917736;29;20025;-76
2022/10/02 16:44:27;;;;;;;14.05;1.40;;;14.10;52.50;;;;;;4917776;29;20047;-77
2022/10/02 16:47:08;;;;;;;;;;;14.10;56.50;;;;;;4918058;29;20032;-76
2022/10/02 16:49:56;;;;;;;8.93;1.23;;;14.30;53.40;;;;;;4917523;29;19907;-77
2022/10/02 16:52:28;;;;;;;7.60;1.38;;;14.20;46.20;;;;;;4917370;29;20028;-76
2022/10/02 16:55:13;;;;;;;9.10;1.30;;;14.10;47.70;;;;;;4919382;29;20127;-76
2022/10/02 16:58:08;;;;;;;8.55;1.23;;;14.00;55.50;;;;;;4908466;29;20031;-76
2022/10/02 17:00:47;;;;;;;8.68;1.38;;;13.80;55.50;;;;;;4924316;29;20079;-80
2022/10/02 17:03:40;;;;;;;11.43;2.17;;;13.80;64.20;;;;;;4918793;29;20076;-77
2022/10/02 17:06:31;;;;;;;6.60;1.38;;;13.70;69.80;;;;;;4919033;29;20654;-77
2022/10/02 17:09:06;;;;;;;9.43;1.50;;;13.70;79.20;;;;;;4920867;29;20349;-78
2022/10/02 17:11:44;;;;;;;6.53;1.35;;;13.50;87.70;;;;;;4929148;29;20059;-77
2022/10/02 17:14:17;;;;;;;13.40;1.52;;;13.30;95.40;;;;;;4918074;29;20040;-77
2022/10/02 17:16:59;;;;;;;13.00;1.55;;;13.20;99.90;;;;;;4918356;29;20107;-76
2022/10/02 17:19:44;;;;;;;9.15;1.45;;;13.10;99.90;;;;;;4918220;29;20119;-76
2022/10/02 17:22:27;;;;;;;10.35;1.50;;;13.00;99.90;;;;;;4899844;29;20033;-77
2022/10/02 17:25:11;;;;;;;10.98;1.65;;;12.90;99.90;;;;;;4912178;29;20028;-77
2022/10/02 17:27:55;;;;;;;8.18;1.50;;;12.70;99.90;;;;;;4918155;29;20044;-77
2022/10/02 17:30:23;;;;;;;13.38;1.90;;;12.60;99.90;;;;;;4916557;29;20032;-77
2022/10/02 17:33:12;;;;;;;11.88;1.55;;;12.50;99.90;;;;;;4916189;29;20024;-77
2022/10/02 17:35:47;;;;;;;8.35;1.50;;;12.40;99.90;;;;;;4911141;29;20040;-77
2022/10/02 17:38:40;;;;;;;6.10;1.20;;;12.20;99.90;;;;;;4916929;29;20035;-77
2022/10/02 17:41:37;;;;;;;7.95;1.75;;;12.10;99.90;;;;;;4916898;29;20452;-76
2022/10/02 17:44:33;;;;;;;14.98;1.58;;;12.00;99.90;;;;;;4917653;29;20075;-77
2022/10/02 17:47:24;;;;;;;9.45;1.27;;;12.00;99.90;;;;;;4886068;29;20050;-77
2022/10/02 17:50:21;;;;;;;11.48;1.30;;;11.90;99.90;;;;;;4897955;29;20036;-77
2022/10/02 17:59:17;;;;;;;7.90;1.40;;;11.90;99.90;;;;;;4897930;29;20099;-77
2022/10/02 18:02:07;;;;;;;10.00;1.65;;;12.00;99.90;;;;;;4897546;29;20056;-76
2022/10/02 18:05:12;;;;;;;12.27;1.42;;;12.00;99.90;;;;;;4897842;29;20024;-77
2022/10/02 18:08:02;;;;;;;6.03;0.93;;;12.40;99.90;;;;;;4897590;29;20052;-77
2022/10/02 18:10:47;;;;;;;14.75;2.03;;;12.60;99.90;;;;;;4880917;29;20068;-76
2022/10/02 18:13:44;;;;;;;8.98;1.85;;;12.80;99.90;;;;;;4897534;29;20028;-77
2022/10/02 18:16:36;;;;;;;10.70;1.77;;;12.80;99.90;;;;;;4894414;29;20037;-77
2022/10/02 18:19:23;;;;;;;9.60;1.48;;;12.60;99.90;;;;;;4897553;29;20052;-77
2022/10/02 18:21:52;;;;;;;15.52;1.88;;;12.40;99.90;;;;;;4907723;29;20028;-77
2022/10/02 18:24:21;;;;;;;10.68;1.60;;;12.10;99.90;;;;;;4915840;29;20024;-76
2022/10/02 18:27:24;;;;;;;10.50;1.77;;;12.00;99.90;;;;;;4915787;29;20043;-76
2022/10/02 18:30:08;;;;;;;8.90;1.70;;;11.80;99.90;;;;;;4894124;29;20459;-77
2022/10/02 18:33:06;;;;;;;10.25;2.00;;;11.80;99.90;;;;;;4896199;29;20040;-76
2022/10/02 18:35:44;;;;;;;12.32;1.50;;;11.80;99.90;;;;;;4892750;29;20033;-76
2022/10/02 18:38:30;;;;;;;8.43;1.35;;;11.60;99.90;;;;;;4898907;29;20036;-76
2022/10/02 18:41:35;;;;;;;15.02;1.75;;;11.60;99.90;;;;;;4915488;29;20064;-77
2022/10/02 18:44:22;;;;;;;13.02;1.92;;;11.50;99.90;;;;;;4912854;29;20131;-76
2022/10/02 18:47:30;;;;;;;11.02;2.33;;;11.60;99.90;;;;;;4915459;29;20040;-76
2022/10/02 18:50:14;;;;;;;10.98;1.60;;;11.50;99.90;;;;;;4906904;29;20123;-76
2022/10/02 18:52:55;;;;;;;11.98;1.90;;;11.20;99.90;;;;;;4909770;29;20039;-76
2022/10/02 18:55:49;;;;;;;12.63;2.97;;;11.10;99.90;;;;;;4912562;29;20519;-76
2022/10/02 18:58:32;;;;;;;9.18;2.00;;;11.00;99.90;;;;;;4896209;29;20028;-76
2022/10/02 19:00:58;;;;;;;8.57;1.50;;;11.10;99.90;;;;;;4918613;29;20059;-76
2022/10/02 19:03:35;;;;;;;10.27;1.35;;;11.30;99.90;;;;;;4918940;29;20024;-78
2022/10/02 19:06:27;;;;;;;8.45;1.38;;;11.30;99.90;;;;;;4906024;29;20115;-76
2022/10/02 19:09:02;;;;;;;10.82;1.58;;;11.20;99.90;;;;;;4918880;29;20044;-76
2022/10/02 19:11:30;;;;;;;13.30;2.42;;;11.20;99.90;;;;;;4913535;29;20036;-77
2022/10/02 19:14:01;;;;;;;12.68;2.70;;;11.20;99.90;;;;;;4919341;29;20043;-76
2022/10/02 19:16:29;;;;;;;9.45;2.10;;;11.10;99.90;;;;;;4918674;29;20075;-76
2022/10/02 19:19:23;;;;;;;10.98;2.60;;;11.10;99.90;;;;;;4910702;29;20032;-76
2022/10/02 19:21:50;;;;;;;11.93;2.72;;;11.10;99.90;;;;;;4906847;29;20028;-76
2022/10/02 19:24:23;;;;;;;13.55;2.45;;;11.20;99.90;;;;;;4903572;29;20027;-76
